createdAt,value
2017-11-03T00:18:26.431Z,92.18
2017-11-03T00:19:26.410Z,92.18
2017-11-03T00:20:26.390Z,91.8
2017-11-03T00:21:26.041Z,92.27
2017-11-03T00:22:26.336Z,92.22
2017-11-03T00:23:26.321Z,91.75
2017-11-03T00:24:26.291Z,91.8
2017-11-03T00:25:26.266Z,91.8
2017-11-03T00:26:26.241Z,91.8
2017-11-03T00:27:26.216Z,91.94
2017-11-03T00:28:26.200Z,91.89
2017-11-03T00:29:26.167Z,92.03
2017-11-03T00:30:26.148Z,91.66
2017-11-03T00:31:26.118Z,92.32
2017-11-03T00:32:25.777Z,92.22
2017-11-03T00:33:26.083Z,91.75
2017-11-03T00:34:26.047Z,92.22
2017-11-03T00:35:26.030Z,92.22
2017-11-03T00:36:25.999Z,92.22
2017-11-03T00:37:25.982Z,92.22
2017-11-03T00:38:25.948Z,91.94
2017-11-03T00:39:25.931Z,91.75
2017-11-03T00:40:25.902Z,92.22
2017-11-03T00:41:25.875Z,92.22
2017-11-03T00:42:25.863Z,91.94
2017-11-03T00:43:25.834Z,92.41
2017-11-03T00:44:25.805Z,92.32
2017-11-03T00:45:25.783Z,92.22
2017-11-03T00:46:25.760Z,92.22
2017-11-03T00:47:25.730Z,92.22
2017-11-03T00:48:25.708Z,92.22
2017-11-03T00:49:25.687Z,92.13
2017-11-03T00:50:25.660Z,92.46
2017-11-03T00:51:25.642Z,92.03
2017-11-03T00:52:25.611Z,92.46
2017-11-03T00:53:25.590Z,91.85
2017-11-03T00:54:25.563Z,92.22
2017-11-03T00:55:25.542Z,92.22
2017-11-03T00:56:25.522Z,92.13
2017-11-03T00:57:25.175Z,92.32
2017-11-03T00:58:25.471Z,92.13
2017-11-03T00:59:25.444Z,92.22
2017-11-03T01:00:25.424Z,92.13
2017-11-03T01:01:25.409Z,92.32
2017-11-03T01:02:25.371Z,92.13
2017-11-03T01:03:25.350Z,92.22
2017-11-03T01:04:24.996Z,92.22
2017-11-03T01:05:25.307Z,92.13
2017-11-03T01:06:25.272Z,92.22
2017-11-03T01:07:25.260Z,91.75
2017-11-03T01:08:25.224Z,92.03
2017-11-03T01:09:25.207Z,92.03
2017-11-03T01:10:25.175Z,92.13
2017-11-03T01:11:25.152Z,92.22
2017-11-03T01:12:25.130Z,91.56
2017-11-03T01:13:25.110Z,92.13
2017-11-03T01:14:25.079Z,91.75
2017-11-03T01:15:25.059Z,92.18
2017-11-03T01:16:25.034Z,91.66
2017-11-03T01:17:25.009Z,91.8
2017-11-03T01:18:24.988Z,91.8
2017-11-03T01:19:24.639Z,92.46
2017-11-03T01:20:24.936Z,92.18
2017-11-03T01:21:24.911Z,92.36
2017-11-03T01:22:24.896Z,91.51
2017-11-03T01:23:24.866Z,91.8
2017-11-03T01:24:24.848Z,91.89
2017-11-03T01:25:24.821Z,91.7
2017-11-03T01:26:24.801Z,91.8
2017-11-03T01:27:24.773Z,91.89
2017-11-03T01:28:24.744Z,91.99
2017-11-03T01:29:24.721Z,91.99
2017-11-03T01:30:24.699Z,91.99
2017-11-03T01:31:24.671Z,91.89
2017-11-03T01:32:24.646Z,91.99
2017-11-03T01:33:24.637Z,91.61
2017-11-03T01:34:24.596Z,92.56
2017-11-03T01:35:24.576Z,92.08
2017-11-03T01:36:24.235Z,91.8
2017-11-03T01:37:24.544Z,91.99
2017-11-03T01:38:24.499Z,92.51
2017-11-03T01:39:24.480Z,91.89
2017-11-03T01:40:24.457Z,91.99
2017-11-03T01:41:24.432Z,91.61
2017-11-03T01:42:24.404Z,91.89
2017-11-03T01:43:24.380Z,91.66
2017-11-03T01:44:24.356Z,91.56
2017-11-03T01:45:24.011Z,91.66
2017-11-03T01:46:24.311Z,91.7
2017-11-03T01:47:24.287Z,91.56
2017-11-03T01:48:24.271Z,92.18
2017-11-03T01:49:24.238Z,91.7
2017-11-03T01:50:23.898Z,92.13
2017-11-03T01:51:24.189Z,92.27
2017-11-03T01:52:24.167Z,91.99
2017-11-03T01:53:24.145Z,91.8
2017-11-03T01:54:24.129Z,92.27
2017-11-03T01:56:24.067Z,92.32
2017-11-03T01:57:24.046Z,92.41
2017-11-03T01:58:24.019Z,91.75
2017-11-03T01:59:24.003Z,91.89
2017-11-03T02:00:23.972Z,92.22
2017-11-03T02:01:23.951Z,91.94
2017-11-03T02:02:23.921Z,92.22
2017-11-03T02:03:23.906Z,92.22
2017-11-03T02:04:23.873Z,92.41
2017-11-03T02:05:23.853Z,92.22
2017-11-03T02:06:23.837Z,92.32
2017-11-03T02:07:23.802Z,92.22
2017-11-03T02:08:23.779Z,91.94
2017-11-03T02:09:23.753Z,92.22
2017-11-03T02:10:23.410Z,92.32
2017-11-03T02:11:23.388Z,92.22
2017-11-03T02:12:23.690Z,92.32
2017-11-03T02:13:23.663Z,92.13
2017-11-03T02:14:23.631Z,91.85
2017-11-03T02:15:23.611Z,92.13
2017-11-03T02:16:23.580Z,92.22
2017-11-03T02:17:23.559Z,92.22
2017-11-03T02:18:23.216Z,92.13
2017-11-03T02:19:23.513Z,92.13
2017-11-03T02:20:23.486Z,91.75
2017-11-03T02:21:23.466Z,91.85
2017-11-03T02:22:23.436Z,92.22
2017-11-03T02:23:23.417Z,92.32
2017-11-03T02:24:23.395Z,92.03
2017-11-03T02:25:23.368Z,92.41
2017-11-03T02:26:23.345Z,91.94
2017-11-03T02:27:23.315Z,92.41
2017-11-03T02:28:23.300Z,91.94
2017-11-03T02:29:23.277Z,91.94
2017-11-03T02:30:23.249Z,91.94
2017-11-03T02:31:22.900Z,91.94
2017-11-03T02:32:23.195Z,91.94
2017-11-03T02:33:23.171Z,91.94
2017-11-03T02:34:22.828Z,92.22
2017-11-03T02:35:23.136Z,92.51
2017-11-03T02:36:23.313Z,92.22
2017-11-03T02:37:23.073Z,92.41
2017-11-03T02:38:23.058Z,92.41
2017-11-03T02:39:23.238Z,92.22
2017-11-03T02:40:23.007Z,92.51
2017-11-03T02:41:22.979Z,92.13
2017-11-03T02:42:22.966Z,92.13
2017-11-03T02:43:22.951Z,92.32
2017-11-03T02:44:22.905Z,92.32
2017-11-03T02:45:22.887Z,92.61
2017-11-03T02:46:22.861Z,92.22
2017-11-03T02:47:22.833Z,92.22
2017-11-03T02:48:22.809Z,92.32
2017-11-03T02:49:22.785Z,92.22
2017-11-03T02:50:22.758Z,92.22
2017-11-03T02:51:22.736Z,92.22
2017-11-03T02:52:22.712Z,92.41
2017-11-03T02:53:22.686Z,92.41
2017-11-03T02:54:22.663Z,92.32
2017-11-03T02:55:22.637Z,92.32
2017-11-03T02:56:22.605Z,92.22
2017-11-03T02:57:22.587Z,92.51
2017-11-03T02:58:22.559Z,92.8
2017-11-03T02:59:22.539Z,92.7
2017-11-03T03:00:22.513Z,92.8
2017-11-03T03:01:22.486Z,92.41
2017-11-03T03:02:22.475Z,92.8
2017-11-03T03:03:22.437Z,92.8
2017-11-03T03:04:22.416Z,92.61
2017-11-03T03:05:22.070Z,92.7
2017-11-03T03:06:22.366Z,92.8
2017-11-03T03:07:22.020Z,92.7
2017-11-03T03:08:22.315Z,92.99
2017-11-03T03:09:22.291Z,92.89
2017-11-03T03:10:22.270Z,92.8
2017-11-03T03:11:21.926Z,92.8
2017-11-03T03:12:22.220Z,92.61
2017-11-03T03:13:22.198Z,92.89
2017-11-03T03:14:22.169Z,92.7
2017-11-03T03:15:22.149Z,92.8
2017-11-03T03:16:22.126Z,92.7
2017-11-03T03:17:22.102Z,92.61
2017-11-03T03:18:22.077Z,92.51
2017-11-03T03:19:22.048Z,92.7
2017-11-03T03:20:21.706Z,92.41
2017-11-03T03:21:21.997Z,92.7
2017-11-03T03:22:21.981Z,93.37
2017-11-03T03:23:21.953Z,92.51
2017-11-03T03:24:21.929Z,92.41
2017-11-03T03:25:21.907Z,92.7
2017-11-03T03:26:21.879Z,92.51
2017-11-03T03:27:21.860Z,92.41
2017-11-03T03:28:21.843Z,92.61
2017-11-03T03:29:21.807Z,92.51
2017-11-03T03:30:21.791Z,92.51
2017-11-03T03:31:21.762Z,93.18
2017-11-03T03:32:21.735Z,92.8
2017-11-03T03:33:21.705Z,92.61
2017-11-03T03:34:21.687Z,93.32
2017-11-03T03:35:21.662Z,92.8
2017-11-03T03:36:21.669Z,93.27
2017-11-03T03:37:21.613Z,92.89
2017-11-03T03:38:21.589Z,93.18
2017-11-03T03:39:21.567Z,92.94
2017-11-03T03:40:21.539Z,92.99
2017-11-03T03:41:21.520Z,92.94
2017-11-03T03:42:21.492Z,93.04
2017-11-03T03:43:21.468Z,93.13
2017-11-03T03:44:21.441Z,93.04
2017-11-03T03:45:21.419Z,93.23
2017-11-03T03:46:21.390Z,92.85
2017-11-03T03:47:21.370Z,93.04
2017-11-03T03:48:21.342Z,93.04
2017-11-03T03:49:21.317Z,93.51
2017-11-03T03:50:21.298Z,93.41
2017-11-03T03:51:21.272Z,93.51
2017-11-03T03:52:21.249Z,93.41
2017-11-03T03:53:21.222Z,93.51
2017-11-03T03:54:21.207Z,93.51
2017-11-03T03:55:21.172Z,93.6
2017-11-03T03:56:21.148Z,93.51
2017-11-03T03:57:21.122Z,93.51
2017-11-03T03:58:21.100Z,93.7
2017-11-03T03:59:21.077Z,93.23
2017-11-03T04:00:21.050Z,93.51
2017-11-03T04:01:21.026Z,93.23
2017-11-03T04:02:21.003Z,93.23
2017-11-03T04:03:20.980Z,93.32
2017-11-03T04:04:20.956Z,93.51
2017-11-03T04:05:20.931Z,93.51
2017-11-03T04:06:20.902Z,93.7
2017-11-03T04:07:20.879Z,93.32
2017-11-03T04:08:20.851Z,93.41
2017-11-03T04:09:20.839Z,93.51
2017-11-03T04:10:20.806Z,93.41
2017-11-03T04:11:20.792Z,93.6
2017-11-03T04:12:20.755Z,93.6
2017-11-03T04:13:20.735Z,93.51
2017-11-03T04:14:20.708Z,93.23
2017-11-03T04:15:20.685Z,93.32
2017-11-03T04:16:20.658Z,93.41
2017-11-03T04:17:20.633Z,93.41
2017-11-03T04:18:20.612Z,93.32
2017-11-03T04:19:20.584Z,93.6
2017-11-03T04:20:20.239Z,93.32
2017-11-03T04:21:20.536Z,93.41
2017-11-03T04:22:20.516Z,93.32
2017-11-03T04:23:20.486Z,93.32
2017-11-03T04:24:20.476Z,93.89
2017-11-03T04:25:20.444Z,93.51
2017-11-03T04:26:20.411Z,93.41
2017-11-03T04:27:20.385Z,93.41
2017-11-03T04:28:20.380Z,94.08
2017-11-03T04:29:20.686Z,93.79
2017-11-03T04:30:20.317Z,93.7
2017-11-03T04:31:20.297Z,93.7
2017-11-03T04:32:20.269Z,93.6
2017-11-03T04:33:19.925Z,93.7
2017-11-03T04:34:20.230Z,93.79
2017-11-03T04:35:20.197Z,93.6
2017-11-03T04:36:20.175Z,93.41
2017-11-03T04:37:20.144Z,93.41
2017-11-03T04:38:20.118Z,93.41
2017-11-03T04:39:20.098Z,93.79
2017-11-03T04:40:20.068Z,93.7
2017-11-03T04:41:20.052Z,93.51
2017-11-03T04:42:20.017Z,93.89
2017-11-03T04:43:19.995Z,93.79
2017-11-03T04:44:19.967Z,93.51
2017-11-03T04:45:19.948Z,93.6
2017-11-03T04:46:19.922Z,93.41
2017-11-03T04:47:19.898Z,93.6
2017-11-03T04:48:19.878Z,94.08
2017-11-03T04:49:19.854Z,93.7
2017-11-03T04:50:19.826Z,93.7
2017-11-03T04:51:19.802Z,94.08
2017-11-03T04:52:19.774Z,93.32
2017-11-03T04:53:19.752Z,94.08
2017-11-03T04:54:19.727Z,93.41
2017-11-03T04:55:19.702Z,94.08
2017-11-03T04:56:19.675Z,94.08
2017-11-03T04:57:19.653Z,93.89
2017-11-03T04:58:19.311Z,93.99
2017-11-03T04:59:19.601Z,93.89
2017-11-03T05:00:19.609Z,93.79
2017-11-03T05:01:19.554Z,93.89
2017-11-03T05:02:19.531Z,93.89
2017-11-03T05:03:19.512Z,93.89
2017-11-03T05:04:19.490Z,93.89
2017-11-03T05:05:19.462Z,93.79
2017-11-03T05:06:19.433Z,93.99
2017-11-03T05:07:19.410Z,94.65
2017-11-03T05:08:19.385Z,94.37
2017-11-03T05:09:19.357Z,94.65
2017-11-03T05:10:19.338Z,94.46
2017-11-03T05:11:18.990Z,94.18
2017-11-03T05:12:19.294Z,94.65
2017-11-03T05:13:19.261Z,94.46
2017-11-03T05:14:19.242Z,94.46
2017-11-03T05:15:19.215Z,94.56
2017-11-03T05:16:19.187Z,94.46
2017-11-03T05:17:19.168Z,94.27
2017-11-03T05:18:19.140Z,94.65
2017-11-03T05:19:19.124Z,94.46
2017-11-03T05:20:19.089Z,94.08
2017-11-03T05:21:19.070Z,94.27
2017-11-03T05:22:19.040Z,94.65
2017-11-03T05:23:19.019Z,94.65
2017-11-03T05:24:18.672Z,94.65
2017-11-03T05:25:18.973Z,94.18
2017-11-03T05:26:18.945Z,94.27
2017-11-03T05:27:18.960Z,94.27
2017-11-03T05:28:18.898Z,94.46
2017-11-03T05:29:18.865Z,94.46
2017-11-03T05:30:18.845Z,94.37
2017-11-03T05:31:18.822Z,94.46
2017-11-03T05:32:18.803Z,94.56
2017-11-03T05:33:18.770Z,94.46
2017-11-03T05:34:18.745Z,94.46
2017-11-03T05:35:18.725Z,94.46
2017-11-03T05:36:18.700Z,94.37
2017-11-03T05:37:18.678Z,94.46
2017-11-03T05:38:18.652Z,94.46
2017-11-03T05:39:18.975Z,94.46
2017-11-03T05:40:18.282Z,94.37
2017-11-03T05:41:18.577Z,94.37
2017-11-03T05:42:18.549Z,94.27
2017-11-03T05:43:18.526Z,94.27
2017-11-03T05:44:18.506Z,94.56
2017-11-03T05:45:18.476Z,94.46
2017-11-03T05:46:18.449Z,94.46
2017-11-03T05:47:18.431Z,94.37
2017-11-03T05:48:18.426Z,94.18
2017-11-03T05:49:18.379Z,94.27
2017-11-03T05:50:18.360Z,94.37
2017-11-03T05:51:18.334Z,94.46
2017-11-03T05:52:18.305Z,94.37
2017-11-03T05:53:18.284Z,94.46
2017-11-03T05:54:18.266Z,94.18
2017-11-03T05:55:18.230Z,94.32
2017-11-03T05:56:18.210Z,94.37
2017-11-03T05:57:18.183Z,94.46
2017-11-03T05:58:18.164Z,94.46
2017-11-03T05:59:18.170Z,94.27
2017-11-03T06:00:18.120Z,94.18
2017-11-03T06:01:18.086Z,94.27
2017-11-03T06:02:18.066Z,94.27
2017-11-03T06:03:18.037Z,94.08
2017-11-03T06:04:18.017Z,94.08
2017-11-03T06:05:17.989Z,94.08
2017-11-03T06:06:17.646Z,94.13
2017-11-03T06:07:17.948Z,94.08
2017-11-03T06:08:17.920Z,94.08
2017-11-03T06:09:17.892Z,94.18
2017-11-03T06:10:17.868Z,94.27
2017-11-03T06:11:17.846Z,94.37
2017-11-03T06:12:17.819Z,94.51
2017-11-03T06:13:17.798Z,94.46
2017-11-03T06:14:17.769Z,94.46
2017-11-03T06:15:17.744Z,94.27
2017-11-03T06:16:17.730Z,94.32
2017-11-03T06:17:17.379Z,94.32
2017-11-03T06:18:17.677Z,94.13
2017-11-03T06:19:17.652Z,94.42
2017-11-03T06:20:17.620Z,94.42
2017-11-03T06:21:17.600Z,94.37
2017-11-03T06:22:17.573Z,94.18
2017-11-03T06:23:17.548Z,94.42
2017-11-03T06:24:17.525Z,94.42
2017-11-03T06:25:17.505Z,94.51
2017-11-03T06:26:17.481Z,94.32
2017-11-03T06:27:17.462Z,94.32
2017-11-03T06:28:17.430Z,94.32
2017-11-03T06:29:17.095Z,94.51
2017-11-03T06:30:17.383Z,94.32
2017-11-03T06:31:17.364Z,94.22
2017-11-03T06:32:17.327Z,94.42
2017-11-03T06:33:17.405Z,94.22
2017-11-03T06:34:17.294Z,94.22
2017-11-03T06:35:17.261Z,94.42
2017-11-03T06:36:17.239Z,94.51
2017-11-03T06:37:17.221Z,94.13
2017-11-03T06:38:17.189Z,94.42
2017-11-03T06:39:17.160Z,94.42
2017-11-03T06:40:17.139Z,94.51
2017-11-03T06:41:17.112Z,94.32
2017-11-03T06:42:17.088Z,94.51
2017-11-03T06:43:17.068Z,93.84
2017-11-03T06:44:17.044Z,93.84
2017-11-03T06:45:16.695Z,94.22
2017-11-03T06:46:17.002Z,94.51
2017-11-03T06:47:16.654Z,94.51
2017-11-03T06:48:16.944Z,94.51
2017-11-03T06:49:16.927Z,94.6
2017-11-03T06:50:16.893Z,94.51
2017-11-03T06:51:16.885Z,94.51
2017-11-03T06:52:16.852Z,94.7
2017-11-03T06:53:16.823Z,94.51
2017-11-03T06:54:16.802Z,94.6
2017-11-03T06:55:16.777Z,93.75
2017-11-03T06:56:16.748Z,93.94
2017-11-03T06:57:16.736Z,93.84
2017-11-03T06:58:16.711Z,94.03
2017-11-03T06:59:16.363Z,93.84
2017-11-03T07:00:16.658Z,93.75
2017-11-03T07:01:16.310Z,93.84
2017-11-03T07:02:16.604Z,94.42
2017-11-03T07:03:16.579Z,93.75
2017-11-03T07:04:16.556Z,93.94
2017-11-03T07:05:16.532Z,93.84
2017-11-03T07:06:16.507Z,94.03
2017-11-03T07:07:16.487Z,93.94
2017-11-03T07:08:16.462Z,94.03
2017-11-03T07:09:16.453Z,94.03
2017-11-03T07:10:16.412Z,94.13
2017-11-03T07:11:16.069Z,94.03
2017-11-03T07:12:16.044Z,94.13
2017-11-03T07:13:16.343Z,94.03
2017-11-03T07:14:16.330Z,94.13
2017-11-03T07:15:16.306Z,94.03
2017-11-03T07:16:16.265Z,93.94
2017-11-03T07:17:16.245Z,93.94
2017-11-03T07:18:16.218Z,93.65
2017-11-03T07:19:16.192Z,93.84
2017-11-03T07:20:15.847Z,94.22
2017-11-03T07:21:16.155Z,94.22
2017-11-03T07:22:16.124Z,93.75
2017-11-03T07:23:16.105Z,93.51
2017-11-03T07:24:16.069Z,93.51
2017-11-03T07:25:16.048Z,93.79
2017-11-03T07:26:16.033Z,93.65
2017-11-03T07:27:16.000Z,93.7
2017-11-03T07:28:15.980Z,93.79
2017-11-03T07:29:15.950Z,93.7
2017-11-03T07:30:15.932Z,93.79
2017-11-03T07:31:15.908Z,93.79
2017-11-03T07:32:15.880Z,93.32
2017-11-03T07:33:15.854Z,93.32
2017-11-03T07:34:15.828Z,93.23
2017-11-03T07:35:15.807Z,93.23
2017-11-03T07:36:15.789Z,93.13
2017-11-03T07:37:15.763Z,93.23
2017-11-03T07:38:15.416Z,93.23
2017-11-03T07:39:15.717Z,93.23
2017-11-03T07:40:15.682Z,93.41
2017-11-03T07:41:15.661Z,93.41
2017-11-03T07:42:15.642Z,93.32
2017-11-03T07:43:15.615Z,93.6
2017-11-03T07:44:15.613Z,93.23
2017-11-03T07:45:15.573Z,93.13
2017-11-03T07:46:15.542Z,93.23
2017-11-03T07:47:15.526Z,93.23
2017-11-03T07:48:15.497Z,93.23
2017-11-03T07:49:15.471Z,93.41
2017-11-03T07:50:15.447Z,93.32
2017-11-03T07:51:15.427Z,93.23
2017-11-03T07:52:15.406Z,93.32
2017-11-03T07:53:15.378Z,93.23
2017-11-03T07:54:15.352Z,93.51
2017-11-03T07:55:15.336Z,93.7
2017-11-03T07:56:15.302Z,92.65
2017-11-03T07:57:15.288Z,92.94
2017-11-03T07:58:15.267Z,92.89
2017-11-03T07:59:15.237Z,92.79
2017-11-03T08:00:15.213Z,92.99
2017-11-03T08:01:15.186Z,93.18
2017-11-03T08:02:15.160Z,93.18
2017-11-03T08:03:15.154Z,92.99
2017-11-03T08:04:15.116Z,93.08
2017-11-03T08:05:15.090Z,93.18
2017-11-03T08:06:15.068Z,92.41
2017-11-03T08:07:15.053Z,92.7
2017-11-03T08:08:15.020Z,92.51
2017-11-03T08:09:15.000Z,92.51
2017-11-03T08:10:14.965Z,92.41
2017-11-03T08:11:14.947Z,92.41
2017-11-03T08:12:14.612Z,92.41
2017-11-03T08:13:14.902Z,92.41
2017-11-03T08:14:14.876Z,92.6
2017-11-03T08:15:14.857Z,92.79
2017-11-03T08:16:14.834Z,92.41
2017-11-03T08:17:14.805Z,92.6
2017-11-03T08:18:14.785Z,92.6
2017-11-03T08:19:14.761Z,92.7
2017-11-03T08:20:14.422Z,92.7
2017-11-03T08:21:14.710Z,92.7
2017-11-03T08:22:14.697Z,92.32
2017-11-03T08:23:14.663Z,92.41
2017-11-03T08:24:14.653Z,92.22
2017-11-03T08:25:14.628Z,92.41
2017-11-03T08:26:14.594Z,92.22
2017-11-03T08:27:14.571Z,92.41
2017-11-03T08:28:14.544Z,92.51
2017-11-03T08:29:14.531Z,91.84
2017-11-03T08:30:14.498Z,92.22
2017-11-03T08:31:14.482Z,92.03
2017-11-03T08:32:14.453Z,92.08
2017-11-03T08:33:14.432Z,91.89
2017-11-03T08:34:14.399Z,92.36
2017-11-03T08:35:14.383Z,92.18
2017-11-03T08:36:14.356Z,92.36
2017-11-03T08:37:14.018Z,92.46
2017-11-03T08:38:14.316Z,91.79
2017-11-03T08:39:14.292Z,91.6
2017-11-03T08:40:13.948Z,91.79
2017-11-03T08:41:14.268Z,91.79
2017-11-03T08:42:14.215Z,91.6
2017-11-03T08:43:14.200Z,91.41
2017-11-03T08:44:14.192Z,91.51
2017-11-03T08:45:14.151Z,91.51
2017-11-03T08:46:14.133Z,91.31
2017-11-03T08:47:13.782Z,91.6
2017-11-03T08:48:14.088Z,91.6
2017-11-03T08:49:14.075Z,91.31
2017-11-03T08:50:14.035Z,91.7
2017-11-03T08:51:14.004Z,91.89
2017-11-03T08:52:13.985Z,91.89
2017-11-03T08:53:13.962Z,91.51
2017-11-03T08:54:13.935Z,91.31
2017-11-03T08:55:14.065Z,91.89
2017-11-03T08:56:13.893Z,91.6
2017-11-03T08:57:13.870Z,91.51
2017-11-03T08:58:13.845Z,91.31
2017-11-03T08:59:13.512Z,91.51
2017-11-03T09:00:13.799Z,91.6
2017-11-03T09:01:13.774Z,91.51
2017-11-03T09:02:13.755Z,91.84
2017-11-03T09:03:13.727Z,91.65
2017-11-03T09:04:13.704Z,91.84
2017-11-03T09:05:13.683Z,90.98
2017-11-03T09:06:13.657Z,91.17
2017-11-03T09:07:13.641Z,90.89
2017-11-03T09:08:13.645Z,90.98
2017-11-03T09:09:13.590Z,90.98
2017-11-03T09:10:13.567Z,91.17
2017-11-03T09:11:13.536Z,91.17
2017-11-03T09:12:13.527Z,91.17
2017-11-03T09:13:13.518Z,90.7
2017-11-03T09:14:13.471Z,90.79
2017-11-03T09:15:13.448Z,90.89
2017-11-03T09:16:13.431Z,90.7
2017-11-03T09:17:13.400Z,90.7
2017-11-03T09:18:13.385Z,90.98
2017-11-03T09:19:13.353Z,90.5
2017-11-03T09:20:13.336Z,90.6
2017-11-03T09:21:13.309Z,90.55
2017-11-03T09:22:13.288Z,90.79
2017-11-03T09:23:13.264Z,91.03
2017-11-03T09:24:13.241Z,89.98
2017-11-03T09:25:13.218Z,90.08
2017-11-03T09:26:13.195Z,90.17
2017-11-03T09:27:13.186Z,90.26
2017-11-03T09:28:13.148Z,90.08
2017-11-03T09:29:13.123Z,90.17
2017-11-03T09:30:13.108Z,90.17
2017-11-03T09:31:13.079Z,90.08
2017-11-03T09:32:12.734Z,90.08
2017-11-03T09:33:13.089Z,90.08
2017-11-03T09:34:13.024Z,90.08
2017-11-03T09:35:12.990Z,89.98
2017-11-03T09:36:12.973Z,89.79
2017-11-03T09:37:13.003Z,90.26
2017-11-03T09:38:12.922Z,90.17
2017-11-03T09:39:12.582Z,90.17
2017-11-03T09:40:12.875Z,90.36
2017-11-03T09:41:12.855Z,89.6
2017-11-03T09:42:12.836Z,89.98
2017-11-03T09:43:12.805Z,89.6
2017-11-03T09:44:12.783Z,89.31
2017-11-03T09:45:12.760Z,89.54
2017-11-03T09:46:12.748Z,89.6
2017-11-03T09:47:12.719Z,89.64
2017-11-03T09:48:12.703Z,89.83
2017-11-03T09:49:12.675Z,89.54
2017-11-03T09:50:12.652Z,89.64
2017-11-03T09:51:12.630Z,89.54
2017-11-03T09:52:12.603Z,89.54
2017-11-03T09:53:12.585Z,89.74
2017-11-03T09:54:12.563Z,89.83
2017-11-03T09:55:12.545Z,89.74
2017-11-03T09:56:12.199Z,89.64
2017-11-03T09:57:12.491Z,89.83
2017-11-03T09:58:12.477Z,89.45
2017-11-03T09:59:12.453Z,89.45
2017-11-03T10:00:12.428Z,89.74
2017-11-03T10:01:12.401Z,89.93
2017-11-03T10:02:12.382Z,89.64
2017-11-03T10:03:12.350Z,89.83
2017-11-03T10:04:12.335Z,89.83
2017-11-03T10:05:12.310Z,90.03
2017-11-03T10:06:12.294Z,89.83
2017-11-03T10:07:12.269Z,90.5
2017-11-03T10:08:11.924Z,90.69
2017-11-03T10:09:12.226Z,90.59
2017-11-03T10:10:12.198Z,90.88
2017-11-03T10:11:12.175Z,90.22
2017-11-03T10:12:12.156Z,90.59
2017-11-03T10:13:12.139Z,90.79
2017-11-03T10:14:12.108Z,90.59
2017-11-03T10:15:12.088Z,90.59
2017-11-03T10:16:12.069Z,90.69
2017-11-03T10:17:12.047Z,90.59
2017-11-03T10:18:12.020Z,90.5
2017-11-03T10:19:11.994Z,90.69
2017-11-03T10:20:11.975Z,90.79
2017-11-03T10:21:11.949Z,90.5
2017-11-03T10:22:11.934Z,90.88
2017-11-03T10:23:11.905Z,91.36
2017-11-03T10:24:11.887Z,90.98
2017-11-03T10:25:11.859Z,90.88
2017-11-03T10:26:12.212Z,90.79
2017-11-03T10:27:11.819Z,91.17
2017-11-03T10:28:11.795Z,91.17
2017-11-03T10:29:11.777Z,90.59
2017-11-03T10:30:11.745Z,90.5
2017-11-03T10:31:11.724Z,90.88
2017-11-03T10:32:11.753Z,90.69
2017-11-03T10:33:11.677Z,90.69
2017-11-03T10:34:11.663Z,90.98
2017-11-03T10:35:11.635Z,90.98
2017-11-03T10:36:11.609Z,90.73
2017-11-03T10:37:11.592Z,90.79
2017-11-03T10:38:11.564Z,90.83
2017-11-03T10:39:11.549Z,90.69
2017-11-03T10:40:11.203Z,90.5
2017-11-03T10:41:11.498Z,90.93
2017-11-03T10:42:11.475Z,90.88
2017-11-03T10:43:11.453Z,91.21
2017-11-03T10:44:11.429Z,91.6
2017-11-03T10:45:11.094Z,91.02
2017-11-03T10:46:11.387Z,91.5
2017-11-03T10:47:11.371Z,91.21
2017-11-03T10:48:11.349Z,91.12
2017-11-03T10:49:11.321Z,91.5
2017-11-03T10:50:11.303Z,91.31
2017-11-03T10:51:11.281Z,91.6
2017-11-03T10:52:11.265Z,91.69
2017-11-03T10:53:11.232Z,91.5
2017-11-03T10:54:11.204Z,91.12
2017-11-03T10:55:11.191Z,92.07
2017-11-03T10:56:11.167Z,91.21
2017-11-03T10:57:11.148Z,91.88
2017-11-03T10:58:11.117Z,91.69
2017-11-03T10:59:11.105Z,91.88
2017-11-03T11:00:11.074Z,91.88
2017-11-03T11:01:11.057Z,91.5
2017-11-03T11:02:11.027Z,91.98
2017-11-03T11:03:11.008Z,92.07
2017-11-03T11:04:10.982Z,92.07
2017-11-03T11:05:10.963Z,91.98
2017-11-03T11:06:10.943Z,91.78
2017-11-03T11:07:10.924Z,91.88
2017-11-03T11:08:10.897Z,91.98
2017-11-03T11:09:10.870Z,91.88
2017-11-03T11:10:10.849Z,91.88
2017-11-03T11:11:10.823Z,91.88
2017-11-03T11:12:10.809Z,91.88
2017-11-03T11:13:10.785Z,91.88
2017-11-03T11:14:10.760Z,91.78
2017-11-03T11:15:10.740Z,91.69
2017-11-03T11:16:10.717Z,91.69
2017-11-03T11:17:10.374Z,91.69
2017-11-03T11:18:10.673Z,91.98
2017-11-03T11:19:10.651Z,92.74
2017-11-03T11:20:10.637Z,92.26
2017-11-03T11:21:10.605Z,92.07
2017-11-03T11:22:10.598Z,92.07
2017-11-03T11:23:10.559Z,92.17
2017-11-03T11:24:10.555Z,91.88
2017-11-03T11:25:10.516Z,92.17
2017-11-03T11:26:10.493Z,92.26
2017-11-03T11:27:10.467Z,92.26
2017-11-03T11:28:10.447Z,92.17
2017-11-03T11:29:10.423Z,92.07
2017-11-03T11:30:10.406Z,92.17
2017-11-03T11:31:10.386Z,92.36
2017-11-03T11:32:10.361Z,92.26
2017-11-03T11:33:10.337Z,92.07
2017-11-03T11:34:10.319Z,92.07
2017-11-03T11:35:10.289Z,92.21
2017-11-03T11:36:10.269Z,92.31
2017-11-03T11:37:10.246Z,92.31
2017-11-03T11:38:10.227Z,92.31
2017-11-03T11:39:10.204Z,92.5
2017-11-03T11:40:10.181Z,92.41
2017-11-03T11:41:10.161Z,92.5
2017-11-03T11:42:10.158Z,92.41
2017-11-03T11:43:10.112Z,92.5
2017-11-03T11:44:10.095Z,92.69
2017-11-03T11:45:10.066Z,92.12
2017-11-03T11:46:10.042Z,92.21
2017-11-03T11:47:10.021Z,92.31
2017-11-03T11:48:10.004Z,92.41
2017-11-03T11:49:09.985Z,92.31
2017-11-03T11:50:09.953Z,92.31
2017-11-03T11:51:09.938Z,92.5
2017-11-03T11:52:09.917Z,92.41
2017-11-03T11:53:09.896Z,92.6
2017-11-03T11:54:09.869Z,92.5
2017-11-03T11:55:09.846Z,92.21
2017-11-03T11:56:09.819Z,92.41
2017-11-03T11:57:09.801Z,92.41
2017-11-03T11:58:09.789Z,92.41
2017-11-03T11:59:09.760Z,92.69
2017-11-03T12:00:09.746Z,92.31
2017-11-03T12:01:09.717Z,92.69
2017-11-03T12:02:09.689Z,92.6
2017-11-03T12:03:09.672Z,92.6
2017-11-03T12:04:09.648Z,92.6
2017-11-03T12:05:09.310Z,92.5
2017-11-03T12:06:09.283Z,92.6
2017-11-03T12:07:09.586Z,92.69
2017-11-03T12:08:09.562Z,92.5
2017-11-03T12:09:09.535Z,92.69
2017-11-03T12:10:09.521Z,92.5
2017-11-03T12:11:09.496Z,92.79
2017-11-03T12:12:09.477Z,92.5
2017-11-03T12:13:09.800Z,92.6
2017-11-03T12:14:09.423Z,92.5
2017-11-03T12:15:09.406Z,92.69
2017-11-03T12:16:09.088Z,92.21
2017-11-03T12:17:09.355Z,92.6
2017-11-03T12:18:09.342Z,92.6
2017-11-03T12:19:09.322Z,92.21
2017-11-03T12:20:09.300Z,92.31
2017-11-03T12:21:09.282Z,92.69
2017-11-03T12:22:09.254Z,92.79
2017-11-03T12:23:09.225Z,92.41
2017-11-03T12:24:09.206Z,92.6
2017-11-03T12:25:09.188Z,92.79
2017-11-03T12:26:09.155Z,92.79
2017-11-03T12:27:09.151Z,92.88
2017-11-03T12:28:09.113Z,92.69
2017-11-03T12:29:09.102Z,92.88
2017-11-03T12:30:08.754Z,92.69
2017-11-03T12:31:08.732Z,92.6
2017-11-03T12:32:09.041Z,92.6
2017-11-03T12:33:09.010Z,93.17
2017-11-03T12:34:08.978Z,93.17
2017-11-03T12:35:08.963Z,93.17
2017-11-03T12:36:08.951Z,92.69
2017-11-03T12:37:08.913Z,92.88
2017-11-03T12:38:08.895Z,93.17
2017-11-03T12:39:08.548Z,92.88
2017-11-03T12:40:08.869Z,92.88
2017-11-03T12:41:08.846Z,92.97
2017-11-03T12:42:08.809Z,92.79
2017-11-03T12:43:08.784Z,92.97
2017-11-03T12:44:08.759Z,92.88
2017-11-03T12:45:08.752Z,92.69
2017-11-03T12:46:08.729Z,92.97
2017-11-03T12:47:08.693Z,92.88
2017-11-03T12:48:08.672Z,92.6
2017-11-03T12:49:08.659Z,92.6
2017-11-03T12:50:08.310Z,92.79
2017-11-03T12:51:08.603Z,92.69
2017-11-03T12:52:08.583Z,92.79
2017-11-03T12:53:08.233Z,93.07
2017-11-03T12:54:08.535Z,93.07
2017-11-03T12:55:08.506Z,93.17
2017-11-03T12:56:08.500Z,93.07
2017-11-03T12:57:08.473Z,92.88
2017-11-03T12:58:08.452Z,93.07
2017-11-03T12:59:08.435Z,92.79
2017-11-03T13:00:08.100Z,92.79
2017-11-03T13:01:08.383Z,93.07
2017-11-03T13:02:08.360Z,93.17
2017-11-03T13:03:08.019Z,92.88
2017-11-03T13:04:08.004Z,93.07
2017-11-03T13:05:07.969Z,92.6
2017-11-03T13:06:08.271Z,93.17
2017-11-03T13:07:08.241Z,93.07
2017-11-03T13:08:08.227Z,93.17
2017-11-03T13:09:08.200Z,92.6
2017-11-03T13:10:08.179Z,93.07
2017-11-03T13:11:08.151Z,92.6
2017-11-03T13:12:08.131Z,92.79
2017-11-03T13:13:08.110Z,92.6
2017-11-03T13:14:08.090Z,92.12
2017-11-03T13:15:08.066Z,93.07